Time;durP1;ratioP1;P1;durP2;ratioP2;P2;SDS_P1;SDS_P2;PMS_P1;PMS_P2;Temp;Humidity;BMP_temperature;BMP_pressure;BME280_temperature;BME280_humidity;BME280_pressure;Samples;Min_cycle;Max_cycle;Signal;HPM_P1;HPM_P2
2022/09/08 00:00:03;;;;;;;13.80;13.20;;;21.00;43.60;;;;;;5054526;28;20255;-78
2022/09/08 00:02:29;;;;;;;13.73;13.03;;;20.90;44.60;;;;;;5036589;28;20465;-78
2022/09/08 00:04:54;;;;;;;13.70;13.00;;;20.90;45.60;;;;;;5055008;28;20458;-78
2022/09/08 00:07:21;;;;;;;13.77;13.10;;;20.90;45.70;;;;;;5054415;28;20184;-78
2022/09/08 00:09:47;;;;;;;13.87;13.17;;;20.90;47.10;;;;;;5055065;28;20168;-79
2022/09/08 00:12:13;;;;;;;13.80;13.20;;;21.00;47.10;;;;;;5036774;28;20419;-78
2022/09/08 00:14:39;;;;;;;12.67;12.17;;;21.00;47.00;;;;;;5054890;28;20659;-79
2022/09/08 00:17:04;;;;;;;13.90;13.17;;;21.10;45.80;;;;;;5054286;28;20461;-78
2022/09/08 00:19:30;;;;;;;13.93;13.43;;;21.00;44.20;;;;;;5054655;28;20263;-78
2022/09/08 00:21:56;;;;;;;13.80;13.00;;;21.10;44.80;;;;;;5054287;28;20691;-78
2022/09/08 00:24:22;;;;;;;13.53;12.87;;;21.10;44.80;;;;;;5054760;28;20212;-78
2022/09/08 00:26:48;;;;;;;13.03;12.43;;;21.10;45.20;;;;;;5054093;28;20520;-78
2022/09/08 00:29:13;;;;;;;13.50;12.87;;;21.20;44.40;;;;;;5036102;28;20585;-79
2022/09/08 00:31:40;;;;;;;13.47;12.87;;;21.30;44.20;;;;;;5054150;28;20640;-79
2022/09/08 00:34:06;;;;;;;12.93;12.43;;;21.40;43.90;;;;;;5037123;28;20184;-78
2022/09/08 00:36:33;;;;;;;14.07;13.33;;;21.40;43.40;;;;;;5054307;28;20449;-79
2022/09/08 00:39:00;;;;;;;13.70;13.00;;;21.20;44.20;;;;;;5053401;28;20418;-78
2022/09/08 00:41:26;;;;;;;15.03;14.20;;;21.30;44.30;;;;;;5054158;28;20464;-78
2022/09/08 00:43:58;;;;;;;13.97;13.27;;;21.30;44.00;;;;;;5036180;28;20536;-78
2022/09/08 00:46:39;;;;;;;13.80;13.20;;;21.30;44.00;;;;;;5036989;28;20478;-78
2022/09/08 00:49:13;;;;;;;13.73;13.13;;;21.30;43.60;;;;;;5036204;28;20426;-78
2022/09/08 00:51:42;;;;;;;13.37;12.77;;;21.30;43.40;;;;;;5036657;28;20579;-78
2022/09/08 00:54:10;;;;;;;14.60;13.90;;;21.30;43.60;;;;;;5062837;28;20415;-77
2022/09/08 00:56:37;;;;;;;12.90;12.40;;;21.10;47.00;;;;;;5044271;28;20449;-78
2022/09/08 00:59:03;;;;;;;13.50;12.73;;;20.80;49.90;;;;;;5064279;28;20426;-79
2022/09/08 01:01:32;;;;;;;13.27;12.73;;;20.60;50.00;;;;;;5068394;28;20433;-78
2022/09/08 01:03:58;;;;;;;15.00;14.27;;;20.50;49.90;;;;;;5055269;28;20451;-78
2022/09/08 01:12:50;;;;;;;14.70;14.00;;;20.60;48.90;;;;;;5076752;28;20409;-79
2022/09/08 01:15:22;;;;;;;12.90;12.20;;;20.60;49.60;;;;;;5076793;28;20486;-78
2022/09/08 01:17:51;;;;;;;11.73;11.30;;;20.50;51.50;;;;;;5059596;28;20468;-79
2022/09/08 01:20:19;;;;;;;11.83;11.33;;;20.50;50.80;;;;;;5076829;28;20437;-79
2022/09/08 01:23:06;;;;;;;12.27;11.63;;;20.40;52.70;;;;;;5058394;28;20427;-78
2022/09/08 01:26:11;;;;;;;11.90;11.40;;;20.30;52.20;;;;;;5062058;28;20477;-78
2022/09/08 01:28:45;;;;;;;12.30;11.80;;;20.40;51.30;;;;;;5071694;28;20769;-78
2022/09/08 01:31:12;;;;;;;12.27;11.67;;;20.40;51.10;;;;;;5051064;28;20411;-77
2022/09/08 01:33:38;;;;;;;12.40;11.90;;;20.50;51.30;;;;;;5051610;28;20414;-77
2022/09/08 01:36:11;;;;;;;11.60;11.10;;;20.60;50.90;;;;;;5065787;28;20419;-79
2022/09/08 01:38:37;;;;;;;12.90;12.17;;;20.70;50.00;;;;;;5061812;28;20452;-78
2022/09/08 01:41:03;;;;;;;12.60;11.93;;;20.80;49.80;;;;;;5062043;28;20407;-78
2022/09/08 01:43:29;;;;;;;13.10;12.30;;;20.80;49.00;;;;;;5059811;28;20843;-78
2022/09/08 01:45:57;;;;;;;12.17;11.70;;;20.90;49.10;;;;;;5067593;28;20453;-78
2022/09/08 01:48:23;;;;;;;13.03;12.53;;;21.00;48.70;;;;;;5073131;28;20172;-79
2022/09/08 01:50:49;;;;;;;12.90;12.37;;;21.00;48.50;;;;;;5073083;28;20436;-79
2022/09/08 01:53:15;;;;;;;12.53;12.07;;;21.00;48.50;;;;;;5075539;28;20231;-79
2022/09/08 01:55:41;;;;;;;12.10;11.60;;;21.00;48.60;;;;;;5055953;28;20223;-79
2022/09/08 01:58:06;;;;;;;13.20;12.40;;;20.90;48.60;;;;;;5073623;28;20168;-79
2022/09/08 02:00:32;;;;;;;12.50;11.90;;;20.80;51.10;;;;;;5053772;28;20550;-79
2022/09/08 02:02:57;;;;;;;12.50;12.07;;;20.70;51.70;;;;;;5063083;28;20255;-79
2022/09/08 02:05:23;;;;;;;12.90;12.27;;;20.60;52.80;;;;;;5059239;28;20297;-79
2022/09/08 02:07:49;;;;;;;13.63;12.83;;;20.30;52.40;;;;;;5060347;28;20188;-79
2022/09/08 02:10:14;;;;;;;12.73;12.13;;;20.30;53.70;;;;;;5044301;28;20647;-79
2022/09/08 02:12:40;;;;;;;12.90;12.30;;;20.20;54.00;;;;;;5061854;28;20652;-79
2022/09/08 02:15:06;;;;;;;13.17;12.57;;;20.30;53.20;;;;;;5059279;28;20207;-79
2022/09/08 02:17:32;;;;;;;12.33;11.73;;;20.20;51.80;;;;;;5059252;28;20191;-78
2022/09/08 02:19:58;;;;;;;12.40;11.90;;;20.20;51.90;;;;;;5059220;28;20764;-79
2022/09/08 02:22:24;;;;;;;12.03;11.53;;;20.10;49.70;;;;;;5041331;28;20176;-78
2022/09/08 02:24:49;;;;;;;13.17;12.47;;;20.00;49.70;;;;;;5041869;28;20203;-79
2022/09/08 02:27:15;;;;;;;11.73;11.23;;;20.00;49.70;;;;;;5059002;28;20466;-79
2022/09/08 02:29:41;;;;;;;11.70;11.10;;;20.00;49.00;;;;;;5058655;28;20168;-79
2022/09/08 02:32:06;;;;;;;11.83;11.43;;;19.90;49.30;;;;;;5040815;28;20244;-78
2022/09/08 02:34:32;;;;;;;11.03;10.53;;;19.90;49.10;;;;;;5056297;28;20214;-78
2022/09/08 02:36:57;;;;;;;11.50;11.00;;;19.90;50.30;;;;;;5057293;28;20191;-79
2022/09/08 02:39:23;;;;;;;12.40;11.50;;;19.90;49.50;;;;;;5058206;28;20172;-78
2022/09/08 02:41:49;;;;;;;11.47;10.97;;;19.80;48.80;;;;;;5056044;28;20176;-78
2022/09/08 02:44:14;;;;;;;11.37;10.80;;;19.60;48.40;;;;;;5055240;28;20212;-77
2022/09/08 02:46:41;;;;;;;10.83;10.50;;;19.60;49.00;;;;;;5055364;28;20223;-77
2022/09/08 02:49:10;;;;;;;11.07;10.67;;;19.60;48.50;;;;;;5037349;28;20180;-78
2022/09/08 02:51:36;;;;;;;11.07;10.67;;;19.50;50.00;;;;;;5037403;28;20426;-77
2022/09/08 02:54:02;;;;;;;11.03;10.63;;;19.40;50.50;;;;;;5055079;28;20422;-77
2022/09/08 02:56:28;;;;;;;10.87;10.47;;;19.50;49.40;;;;;;5055426;28;20893;-78
2022/09/08 02:58:54;;;;;;;10.97;10.57;;;19.40;49.90;;;;;;5037238;28;20636;-78
2022/09/08 03:01:20;;;;;;;10.90;10.50;;;19.40;49.10;;;;;;5055230;28;20658;-78
2022/09/08 03:03:46;;;;;;;11.00;10.60;;;19.30;49.80;;;;;;5055855;28;20485;-78
2022/09/08 03:06:12;;;;;;;11.27;10.90;;;19.30;50.50;;;;;;5055651;28;20426;-79
2022/09/08 03:08:37;;;;;;;10.37;10.07;;;19.30;49.80;;;;;;5056140;28;20418;-80
2022/09/08 03:11:03;;;;;;;11.10;10.70;;;19.30;49.80;;;;;;5055707;28;20410;-80
2022/09/08 03:13:29;;;;;;;10.30;10.00;;;19.30;50.20;;;;;;5056055;28;20168;-80
2022/09/08 03:15:55;;;;;;;10.80;10.40;;;19.30;50.00;;;;;;5056319;28;20439;-80
2022/09/08 03:18:21;;;;;;;10.63;10.10;;;19.30;50.20;;;;;;5037393;28;20521;-77
2022/09/08 03:20:47;;;;;;;10.70;10.30;;;19.40;51.00;;;;;;5054683;28;20212;-77
2022/09/08 03:23:20;;;;;;;11.30;10.80;;;19.30;51.00;;;;;;5055049;28;20406;-77
2022/09/08 03:25:47;;;;;;;11.30;10.80;;;19.40;50.90;;;;;;5055010;28;20208;-78
2022/09/08 03:28:22;;;;;;;10.90;10.27;;;19.30;50.00;;;;;;5054446;28;20415;-78
2022/09/08 03:30:48;;;;;;;10.93;10.53;;;19.30;51.10;;;;;;5050293;28;20977;-77
2022/09/08 03:33:15;;;;;;;11.40;10.70;;;19.40;49.90;;;;;;5035839;28;20461;-77
2022/09/08 03:35:40;;;;;;;11.50;11.10;;;19.30;51.10;;;;;;5054129;28;20955;-77
2022/09/08 03:38:06;;;;;;;11.20;10.80;;;19.40;50.60;;;;;;5036549;28;20418;-77
2022/09/08 03:40:34;;;;;;;10.80;10.50;;;19.30;49.80;;;;;;5035829;28;20184;-78
2022/09/08 03:43:00;;;;;;;10.93;10.57;;;19.30;50.40;;;;;;5054877;28;20926;-78
2022/09/08 03:45:25;;;;;;;10.67;10.37;;;19.30;50.90;;;;;;5054361;28;20513;-78
2022/09/08 03:47:51;;;;;;;11.33;10.93;;;19.30;49.80;;;;;;5054310;28;20502;-78
2022/09/08 03:50:18;;;;;;;11.50;11.00;;;19.20;50.10;;;;;;5053672;28;20184;-78
2022/09/08 03:52:43;;;;;;;10.80;10.50;;;19.10;50.60;;;;;;5036271;28;20266;-78
2022/09/08 03:55:10;;;;;;;10.60;10.30;;;19.10;50.60;;;;;;5054205;28;20461;-78
2022/09/08 03:57:36;;;;;;;10.77;10.37;;;19.10;52.50;;;;;;5053810;28;20480;-78
2022/09/08 04:00:05;;;;;;;10.90;10.60;;;19.20;50.90;;;;;;5035168;28;20458;-78
2022/09/08 04:02:31;;;;;;;11.30;10.80;;;19.10;50.80;;;;;;5053655;28;20449;-78
2022/09/08 04:04:58;;;;;;;11.10;10.80;;;19.10;51.40;;;;;;5052715;28;20493;-77
2022/09/08 04:07:28;;;;;;;11.80;11.20;;;19.00;51.00;;;;;;5036320;28;20207;-78
2022/09/08 04:09:54;;;;;;;11.10;10.70;;;19.00;51.60;;;;;;5035742;28;20415;-78
2022/09/08 04:12:20;;;;;;;12.07;11.37;;;19.10;51.70;;;;;;5053471;28;20418;-78
2022/09/08 04:14:48;;;;;;;11.77;11.37;;;19.00;50.60;;;;;;5053152;28;20188;-77
2022/09/08 04:17:14;;;;;;;10.83;10.43;;;19.00;50.90;;;;;;5037699;28;20219;-78
2022/09/08 04:19:39;;;;;;;11.00;10.57;;;19.00;52.50;;;;;;5036868;28;20456;-78
2022/09/08 04:22:06;;;;;;;11.20;10.80;;;18.90;52.00;;;;;;5038039;28;20234;-78
2022/09/08 04:24:32;;;;;;;11.10;10.80;;;18.90;51.40;;;;;;5039249;28;20203;-77
2022/09/08 04:26:58;;;;;;;10.57;10.27;;;18.80;52.30;;;;;;5055150;28;20781;-77
2022/09/08 04:29:24;;;;;;;11.00;10.70;;;18.80;52.50;;;;;;5055573;28;20425;-77
2022/09/08 04:31:50;;;;;;;10.70;10.13;;;18.80;52.20;;;;;;5037355;28;20208;-77
2022/09/08 04:34:15;;;;;;;10.43;10.03;;;18.90;51.30;;;;;;5053970;28;20184;-77
2022/09/08 04:36:42;;;;;;;10.47;10.10;;;18.80;51.70;;;;;;5056615;28;20207;-78
2022/09/08 04:39:09;;;;;;;11.20;10.90;;;18.90;51.30;;;;;;5056339;28;20225;-79
2022/09/08 04:41:35;;;;;;;10.90;10.60;;;18.90;51.60;;;;;;5055291;28;20415;-78
2022/09/08 04:44:01;;;;;;;10.10;9.80;;;18.80;51.60;;;;;;5055480;28;20462;-78
2022/09/08 04:46:28;;;;;;;10.80;10.20;;;18.70;51.70;;;;;;5036933;28;20253;-78
2022/09/08 04:48:54;;;;;;;10.10;9.80;;;18.80;53.00;;;;;;5054067;28;20411;-78
2022/09/08 04:51:20;;;;;;;10.00;9.70;;;18.80;52.00;;;;;;5037111;28;20753;-78
2022/09/08 04:53:47;;;;;;;9.40;9.10;;;18.80;52.20;;;;;;5056335;28;20180;-77
2022/09/08 04:56:15;;;;;;;10.43;10.13;;;18.80;53.50;;;;;;5056311;28;20493;-78
2022/09/08 04:58:42;;;;;;;10.70;10.30;;;18.80;52.30;;;;;;5037635;28;20454;-77
2022/09/08 05:01:20;;;;;;;9.80;9.50;;;18.80;52.10;;;;;;5054649;28;20423;-78
2022/09/08 05:03:51;;;;;;;10.70;10.30;;;18.80;53.40;;;;;;5054582;28;20422;-78
2022/09/08 05:06:16;;;;;;;10.67;10.37;;;18.80;51.90;;;;;;5053052;28;20438;-78
2022/09/08 05:08:44;;;;;;;11.40;11.00;;;18.90;51.70;;;;;;5052477;28;20441;-78
2022/09/08 05:11:10;;;;;;;10.90;10.60;;;18.90;50.80;;;;;;5052919;28;20407;-78
2022/09/08 05:13:36;;;;;;;11.30;10.70;;;18.90;52.10;;;;;;5055000;28;20505;-79
2022/09/08 05:16:07;;;;;;;11.20;10.53;;;18.90;51.90;;;;;;5053383;28;20466;-77
2022/09/08 05:18:34;;;;;;;11.30;10.90;;;18.90;52.80;;;;;;5054376;28;20422;-79
2022/09/08 05:21:00;;;;;;;10.90;10.50;;;18.90;52.00;;;;;;5055422;28;20422;-78
2022/09/08 05:23:25;;;;;;;10.80;10.40;;;18.90;51.80;;;;;;5035868;28;20977;-78
2022/09/08 05:25:56;;;;;;;11.30;10.80;;;18.90;52.20;;;;;;5054452;28;20236;-79
2022/09/08 05:28:26;;;;;;;11.20;10.80;;;19.00;51.90;;;;;;5036678;28;20179;-78
2022/09/08 05:30:52;;;;;;;10.27;9.97;;;18.90;51.60;;;;;;5055817;28;20415;-79
2022/09/08 05:33:17;;;;;;;10.87;10.57;;;18.90;52.40;;;;;;5055234;28;20520;-78
2022/09/08 05:35:43;;;;;;;12.10;11.70;;;18.80;52.00;;;;;;5055079;28;20699;-77
2022/09/08 05:38:09;;;;;;;10.57;10.17;;;18.90;53.20;;;;;;5053715;28;20207;-78
2022/09/08 05:40:36;;;;;;;11.53;11.13;;;18.90;53.50;;;;;;5052804;28;20586;-78
2022/09/08 05:43:02;;;;;;;11.30;10.90;;;18.80;52.10;;;;;;5034920;28;20187;-77
2022/09/08 05:45:28;;;;;;;11.57;11.17;;;18.80;53.60;;;;;;5053663;28;20477;-77
2022/09/08 05:47:53;;;;;;;10.33;10.00;;;18.70;54.10;;;;;;5053066;28;20407;-77
2022/09/08 05:50:19;;;;;;;11.77;11.20;;;18.70;54.90;;;;;;5052418;28;20248;-78
2022/09/08 05:52:44;;;;;;;11.13;10.63;;;18.80;54.40;;;;;;5053174;28;20168;-77
2022/09/08 05:55:10;;;;;;;10.57;10.27;;;18.80;53.90;;;;;;5053638;28;20238;-78
2022/09/08 05:57:35;;;;;;;11.53;10.77;;;18.80;53.60;;;;;;5035378;28;20213;-78
2022/09/08 06:00:03;;;;;;;10.97;10.57;;;18.70;53.90;;;;;;5054200;28;20588;-77
2022/09/08 06:02:29;;;;;;;9.90;9.60;;;18.70;53.10;;;;;;5034191;28;20176;-77
2022/09/08 06:04:55;;;;;;;10.77;10.27;;;18.70;52.50;;;;;;5052012;28;20469;-76
2022/09/08 06:07:21;;;;;;;11.20;10.70;;;18.60;53.90;;;;;;5050845;28;20179;-77
2022/09/08 06:09:46;;;;;;;11.60;11.20;;;18.60;52.50;;;;;;5033180;28;20402;-76
2022/09/08 06:12:12;;;;;;;11.40;11.00;;;18.60;51.10;;;;;;5049340;28;20652;-77
2022/09/08 06:14:37;;;;;;;11.43;11.03;;;18.60;51.00;;;;;;5032453;28;20172;-77
2022/09/08 06:17:03;;;;;;;11.23;10.73;;;18.60;51.30;;;;;;5050611;28;20696;-77
2022/09/08 06:19:29;;;;;;;13.30;12.27;;;18.60;51.20;;;;;;5033712;28;20183;-77
2022/09/08 06:21:54;;;;;;;12.10;11.80;;;18.70;51.70;;;;;;5051231;28;20414;-76
2022/09/08 06:24:20;;;;;;;12.77;12.17;;;18.70;50.90;;;;;;5033746;28;20257;-77
2022/09/08 06:27:07;;;;;;;12.60;12.17;;;18.70;50.90;;;;;;5050722;28;20246;-77
2022/09/08 06:30:12;;;;;;;12.63;12.23;;;18.70;49.90;;;;;;5054415;28;20674;-77
2022/09/08 06:32:43;;;;;;;12.57;11.60;;;18.60;49.20;;;;;;5037043;28;20418;-77
2022/09/08 06:35:14;;;;;;;12.20;11.80;;;18.50;49.10;;;;;;5054675;28;20609;-77
2022/09/08 06:37:48;;;;;;;12.20;11.87;;;18.40;49.10;;;;;;5054820;28;20890;-77
2022/09/08 06:40:25;;;;;;;12.10;11.60;;;18.50;49.10;;;;;;5054857;28;20410;-77
2022/09/08 06:43:16;;;;;;;12.70;12.10;;;18.50;48.70;;;;;;5036623;28;20452;-77
2022/09/08 06:45:55;;;;;;;11.63;11.33;;;18.60;49.20;;;;;;5054370;28;20462;-77
2022/09/08 06:48:21;;;;;;;13.63;12.20;;;18.70;48.50;;;;;;5054596;28;20505;-77
2022/09/08 06:51:13;;;;;;;12.63;12.03;;;18.80;46.50;;;;;;5036376;28;20834;-76
2022/09/08 06:53:44;;;;;;;12.60;12.20;;;18.80;48.10;;;;;;5035770;28;20183;-77
2022/09/08 06:56:35;;;;;;;13.00;12.53;;;18.70;45.80;;;;;;5054380;28;20487;-76
2022/09/08 06:59:06;;;;;;;12.70;12.13;;;18.70;46.90;;;;;;5053976;28;20413;-77
2022/09/08 07:01:53;;;;;;;12.37;11.97;;;18.70;46.40;;;;;;5053946;28;20811;-77
2022/09/08 07:05:11;;;;;;;12.23;11.73;;;18.60;46.20;;;;;;5054080;28;20448;-77
2022/09/08 07:07:53;;;;;;;12.40;12.00;;;18.70;47.30;;;;;;5020537;28;20422;-77
2022/09/08 07:10:28;;;;;;;11.87;11.30;;;18.60;46.10;;;;;;5053653;28;20409;-77
2022/09/08 07:13:33;;;;;;;11.93;11.53;;;18.60;46.10;;;;;;5053941;28;20406;-77
2022/09/08 07:16:04;;;;;;;12.73;12.33;;;18.50;45.60;;;;;;5036028;28;20485;-76
2022/09/08 07:18:49;;;;;;;11.97;11.57;;;18.50;45.70;;;;;;5053430;28;20434;-77
2022/09/08 07:21:49;;;;;;;11.97;11.57;;;18.40;46.10;;;;;;5054053;28;20753;-77
2022/09/08 07:24:20;;;;;;;12.90;12.40;;;18.40;46.20;;;;;;5053098;28;20504;-78
2022/09/08 07:26:55;;;;;;;12.40;12.00;;;18.20;46.10;;;;;;5035901;28;20457;-78
2022/09/08 07:29:33;;;;;;;13.53;12.63;;;18.10;46.60;;;;;;5053290;28;20898;-77
2022/09/08 07:32:00;;;;;;;12.60;12.20;;;18.20;46.90;;;;;;5053755;28;20514;-77
2022/09/08 07:34:33;;;;;;;12.00;11.70;;;18.20;47.20;;;;;;5053363;28;20485;-78
2022/09/08 07:37:10;;;;;;;11.70;11.30;;;18.20;47.10;;;;;;5035499;28;20438;-77
2022/09/08 07:39:59;;;;;;;11.50;11.20;;;18.40;46.90;;;;;;5053525;28;20482;-77
2022/09/08 07:42:25;;;;;;;11.80;11.50;;;18.40;46.60;;;;;;5035403;28;20515;-78
2022/09/08 07:44:58;;;;;;;11.37;11.07;;;18.50;46.60;;;;;;5052938;28;20508;-78
2022/09/08 07:48:02;;;;;;;12.77;12.30;;;18.50;45.40;;;;;;5054137;28;20403;-77
2022/09/08 07:53:42;;;;;;;12.97;12.47;;;18.60;43.60;;;;;;5052459;28;20401;-77
2022/09/08 07:56:28;;;;;;;12.47;12.07;;;18.50;44.80;;;;;;5052815;28;20491;-77
2022/09/08 07:59:24;;;;;;;12.23;11.83;;;18.60;43.50;;;;;;5053599;28;20430;-77
2022/09/08 08:02:15;;;;;;;11.70;11.40;;;18.70;42.60;;;;;;5051274;28;20415;-78
2022/09/08 08:05:19;;;;;;;12.17;11.47;;;18.80;43.30;;;;;;5052428;28;20450;-77
2022/09/08 08:08:16;;;;;;;11.47;11.17;;;18.80;43.10;;;;;;5050025;28;20425;-77
2022/09/08 08:11:00;;;;;;;11.20;10.90;;;18.80;44.30;;;;;;5053036;28;20421;-78
2022/09/08 08:13:52;;;;;;;11.73;11.33;;;18.80;41.60;;;;;;5034665;28;20827;-78
2022/09/08 08:16:31;;;;;;;11.80;11.40;;;18.80;42.80;;;;;;5052313;28;20501;-78
2022/09/08 08:19:28;;;;;;;12.30;11.90;;;18.90;41.70;;;;;;5053528;28;20435;-78
2022/09/08 08:22:12;;;;;;;11.50;11.10;;;18.90;41.10;;;;;;5053212;28;20387;-78
2022/09/08 08:25:01;;;;;;;12.60;11.73;;;19.00;41.20;;;;;;5053490;28;20438;-78
2022/09/08 08:27:40;;;;;;;11.80;11.50;;;19.10;40.30;;;;;;5052408;28;20451;-77
2022/09/08 08:30:15;;;;;;;11.67;11.37;;;19.20;40.20;;;;;;5052365;28;20758;-77
2022/09/08 08:32:46;;;;;;;11.50;11.10;;;19.30;39.70;;;;;;5052865;28;20398;-77
2022/09/08 08:35:25;;;;;;;11.70;11.40;;;19.40;39.00;;;;;;5053403;28;20744;-77
2022/09/08 08:37:53;;;;;;;13.60;13.00;;;19.40;38.30;;;;;;5053714;28;20442;-77
2022/09/08 08:40:40;;;;;;;12.70;12.30;;;19.30;39.70;;;;;;5035554;28;20415;-77
2022/09/08 08:43:37;;;;;;;12.30;11.90;;;19.40;38.50;;;;;;5052923;28;20421;-78
2022/09/08 08:47:08;;;;;;;12.40;11.83;;;19.50;38.30;;;;;;5053736;28;20466;-78
2022/09/08 08:49:59;;;;;;;12.70;12.10;;;19.70;36.90;;;;;;4972858;28;20418;-79
2022/09/08 08:52:50;;;;;;;12.77;12.37;;;19.70;36.30;;;;;;5015458;28;20487;-77
2022/09/08 08:55:52;;;;;;;13.03;12.53;;;19.90;35.70;;;;;;5033689;28;20469;-78
2022/09/08 08:58:50;;;;;;;12.17;11.80;;;20.00;34.90;;;;;;4993743;28;20494;-79
2022/09/08 09:01:15;;;;;;;12.03;11.63;;;20.10;34.80;;;;;;5053733;28;20399;-79
2022/09/08 09:04:18;;;;;;;12.70;12.20;;;20.10;33.80;;;;;;5035475;28;20406;-77
2022/09/08 09:07:25;;;;;;;13.00;12.50;;;20.10;34.20;;;;;;5053172;28;20671;-78
2022/09/08 09:10:18;;;;;;;12.70;12.10;;;20.10;33.80;;;;;;5035030;28;20855;-79
2022/09/08 09:12:55;;;;;;;12.80;12.00;;;20.20;33.80;;;;;;5054391;28;20767;-78
2022/09/08 09:15:34;;;;;;;12.63;12.23;;;20.30;32.30;;;;;;5034746;28;20541;-77
2022/09/08 09:18:11;;;;;;;12.50;11.80;;;20.30;32.00;;;;;;5052388;28;20772;-77
2022/09/08 09:20:37;;;;;;;12.73;12.33;;;20.30;32.40;;;;;;5052669;28;20773;-77
2022/09/08 09:23:30;;;;;;;12.70;12.20;;;20.30;31.40;;;;;;5034971;28;20418;-78
2022/09/08 09:26:00;;;;;;;12.27;11.77;;;20.20;31.80;;;;;;5052536;28;20804;-78
2022/09/08 09:28:54;;;;;;;12.63;12.23;;;20.10;31.10;;;;;;5034583;28;20420;-78
2022/09/08 09:31:31;;;;;;;11.80;11.50;;;20.10;31.60;;;;;;5052512;28;20407;-78
2022/09/08 09:34:08;;;;;;;12.00;11.30;;;20.00;30.40;;;;;;5052870;28;20445;-78
2022/09/08 09:36:59;;;;;;;12.60;12.20;;;19.90;31.20;;;;;;5052857;28;20426;-78
2022/09/08 09:39:49;;;;;;;12.70;12.30;;;19.90;30.90;;;;;;5052573;28;20438;-78
2022/09/08 09:42:25;;;;;;;12.50;12.10;;;20.00;31.40;;;;;;5034730;28;20415;-78
2022/09/08 09:45:22;;;;;;;12.57;12.17;;;20.10;31.10;;;;;;5034800;28;20457;-78
2022/09/08 09:48:06;;;;;;;12.10;11.70;;;20.20;30.20;;;;;;5034661;28;20398;-78
2022/09/08 09:50:56;;;;;;;12.43;12.00;;;20.30;31.40;;;;;;5034229;28;20415;-78
2022/09/08 09:53:45;;;;;;;12.40;12.00;;;20.50;29.80;;;;;;5052396;28;20436;-78
2022/09/08 09:56:52;;;;;;;11.80;11.40;;;20.50;29.10;;;;;;5045282;28;20439;-78
2022/09/08 09:59:20;;;;;;;12.57;12.07;;;20.60;28.70;;;;;;5037010;28;20426;-79
2022/09/08 10:02:17;;;;;;;12.40;12.00;;;20.70;28.00;;;;;;5036004;28;20422;-79
2022/09/08 10:05:20;;;;;;;12.70;12.10;;;21.00;27.30;;;;;;5057406;28;20454;-79
2022/09/08 10:07:59;;;;;;;11.90;11.60;;;21.40;26.70;;;;;;5039647;28;20777;-78
2022/09/08 10:10:46;;;;;;;12.60;12.00;;;21.70;24.30;;;;;;5039575;28;20465;-78
2022/09/08 10:13:57;;;;;;;12.20;11.80;;;21.90;25.00;;;;;;5058302;28;20497;-79
2022/09/08 10:16:40;;;;;;;12.10;11.47;;;22.10;23.50;;;;;;5058905;28;20430;-77
2022/09/08 10:19:39;;;;;;;12.50;12.10;;;22.10;23.50;;;;;;5040689;28;20494;-78
2022/09/08 10:22:33;;;;;;;11.67;11.27;;;21.90;23.00;;;;;;5056832;28;20417;-78
2022/09/08 10:25:05;;;;;;;13.00;11.80;;;21.90;23.80;;;;;;5038429;28;20469;-77
2022/09/08 10:27:49;;;;;;;12.10;11.70;;;21.60;23.80;;;;;;5056225;28;20497;-76
2022/09/08 10:30:31;;;;;;;12.77;12.37;;;21.70;24.50;;;;;;5055932;28;20805;-80
2022/09/08 10:33:32;;;;;;;12.50;12.10;;;21.50;25.00;;;;;;5055925;28;20442;-79
2022/09/08 10:36:11;;;;;;;11.90;11.50;;;21.60;25.40;;;;;;5056113;28;20438;-78
2022/09/08 10:38:52;;;;;;;12.30;11.90;;;21.60;25.00;;;;;;5055622;28;20418;-77
2022/09/08 10:41:33;;;;;;;12.27;11.90;;;21.60;25.30;;;;;;5055924;28;20476;-77
2022/09/08 10:44:37;;;;;;;12.30;11.80;;;21.60;24.60;;;;;;5038064;28;20916;-78
2022/09/08 10:47:31;;;;;;;12.20;11.80;;;21.60;24.80;;;;;;5055406;28;20444;-78
2022/09/08 10:50:07;;;;;;;12.30;11.90;;;21.50;24.60;;;;;;5037181;28;20410;-78
2022/09/08 10:52:39;;;;;;;12.07;11.57;;;21.50;25.30;;;;;;5055479;28;20497;-78
2022/09/08 10:55:32;;;;;;;13.00;12.60;;;21.50;25.30;;;;;;5037731;28;20738;-78
2022/09/08 10:58:24;;;;;;;12.90;12.30;;;21.50;25.60;;;;;;5055754;28;20456;-79
2022/09/08 11:01:21;;;;;;;12.70;12.30;;;21.60;25.50;;;;;;5038052;28;20414;-79
2022/09/08 11:04:21;;;;;;;12.83;12.43;;;21.50;25.90;;;;;;5056125;28;20505;-79
2022/09/08 11:07:09;;;;;;;13.20;12.80;;;21.50;25.40;;;;;;5056438;28;20808;-78
2022/09/08 11:09:54;;;;;;;12.30;11.90;;;21.40;25.50;;;;;;5054912;28;20418;-79
2022/09/08 11:12:27;;;;;;;12.57;12.17;;;21.40;26.20;;;;;;5036700;28;20784;-78
2022/09/08 11:15:14;;;;;;;12.40;12.00;;;21.40;27.00;;;;;;5054143;28;20414;-78
2022/09/08 11:17:49;;;;;;;11.80;11.50;;;21.40;26.00;;;;;;5054257;28;20917;-78
2022/09/08 11:20:34;;;;;;;12.67;11.20;;;21.30;26.70;;;;;;5037388;28;20410;-79
2022/09/08 11:23:26;;;;;;;12.87;12.27;;;21.40;25.90;;;;;;5055066;28;20973;-78
2022/09/08 11:26:23;;;;;;;13.13;12.63;;;21.40;26.30;;;;;;5054444;28;20654;-78
2022/09/08 11:29:03;;;;;;;12.30;11.90;;;21.50;26.50;;;;;;5037105;28;20415;-78
2022/09/08 11:31:50;;;;;;;12.20;11.80;;;21.60;27.60;;;;;;5054447;28;20452;-80
2022/09/08 11:34:30;;;;;;;12.23;11.83;;;21.60;27.30;;;;;;5055630;28;20457;-78
2022/09/08 11:37:23;;;;;;;12.60;12.20;;;21.60;27.90;;;;;;5057986;28;20807;-78
2022/09/08 11:40:18;;;;;;;13.03;12.53;;;21.50;27.20;;;;;;5057378;28;20406;-77
2022/09/08 11:42:59;;;;;;;12.10;11.80;;;21.50;27.30;;;;;;5057601;28;20488;-77
2022/09/08 11:45:55;;;;;;;12.10;11.70;;;21.50;27.40;;;;;;5054915;28;20962;-79
2022/09/08 11:48:43;;;;;;;12.40;11.90;;;21.50;26.40;;;;;;5036341;28;20414;-78
2022/09/08 11:51:37;;;;;;;12.30;11.90;;;21.50;26.40;;;;;;5036127;28;20415;-78
2022/09/08 11:54:02;;;;;;;13.00;12.60;;;21.50;26.10;;;;;;5036805;28;20422;-79
2022/09/08 11:56:57;;;;;;;13.17;12.67;;;21.50;26.30;;;;;;5055811;28;20423;-79
2022/09/08 11:59:52;;;;;;;12.30;11.90;;;21.40;25.50;;;;;;5036626;28;20183;-77
2022/09/08 12:02:41;;;;;;;12.73;12.13;;;21.40;25.40;;;;;;5036590;28;20414;-78
2022/09/08 12:05:37;;;;;;;12.70;12.30;;;21.40;25.20;;;;;;5036807;28;20459;-77
2022/09/08 12:08:25;;;;;;;12.53;12.03;;;21.40;24.90;;;;;;5054042;28;20460;-78
2022/09/08 12:11:32;;;;;;;12.20;11.70;;;21.30;24.40;;;;;;5037101;28;20410;-78
2022/09/08 12:14:13;;;;;;;12.60;12.07;;;21.40;25.00;;;;;;5036750;28;20422;-78
2022/09/08 12:16:54;;;;;;;12.70;12.20;;;21.40;24.20;;;;;;5054404;28;20496;-77
2022/09/08 12:19:35;;;;;;;14.00;13.40;;;21.40;23.30;;;;;;5055312;28;20409;-78
2022/09/08 12:22:19;;;;;;;12.17;11.67;;;21.40;24.00;;;;;;5035993;28;20422;-78
2022/09/08 12:24:59;;;;;;;12.20;11.30;;;21.50;24.80;;;;;;5041986;28;20554;-77
2022/09/08 12:27:25;;;;;;;11.57;11.07;;;21.50;22.70;;;;;;5016316;28;20422;-78
2022/09/08 12:30:06;;;;;;;11.77;11.30;;;21.50;22.30;;;;;;5017362;28;21015;-77
2022/09/08 12:32:50;;;;;;;11.43;11.07;;;21.50;22.70;;;;;;5034865;28;20525;-78
2022/09/08 12:35:16;;;;;;;12.33;11.47;;;21.50;23.10;;;;;;5034307;28;20419;-78
2022/09/08 12:38:06;;;;;;;11.43;11.03;;;21.40;24.50;;;;;;5035224;28;20467;-79
2022/09/08 12:40:59;;;;;;;11.00;10.63;;;21.40;24.60;;;;;;5035775;28;20259;-79
2022/09/08 12:43:32;;;;;;;11.13;10.83;;;21.30;25.60;;;;;;5036107;28;20452;-79
2022/09/08 12:46:17;;;;;;;11.50;11.20;;;21.30;26.40;;;;;;5017866;28;20832;-78
2022/09/08 12:49:01;;;;;;;11.23;10.90;;;21.40;26.20;;;;;;5035637;28;20407;-78
2022/09/08 12:51:35;;;;;;;11.60;11.07;;;21.50;26.30;;;;;;5034857;28;20426;-78
2022/09/08 12:54:38;;;;;;;11.50;11.10;;;21.60;26.20;;;;;;5018723;28;20441;-79
2022/09/08 12:57:39;;;;;;;11.53;11.03;;;21.80;25.70;;;;;;5036450;28;20431;-79
2022/09/08 13:00:31;;;;;;;10.73;10.43;;;21.90;23.50;;;;;;5018456;28;20941;-79
2022/09/08 13:03:10;;;;;;;12.03;11.53;;;21.90;23.00;;;;;;4998448;28;20441;-78
2022/09/08 13:05:58;;;;;;;11.80;11.17;;;22.00;23.10;;;;;;5035088;28;20498;-78
2022/09/08 13:08:38;;;;;;;11.40;10.90;;;22.00;23.00;;;;;;5035674;28;20430;-79
2022/09/08 13:11:11;;;;;;;12.03;11.53;;;21.90;21.60;;;;;;5017205;28;20412;-79
2022/09/08 13:13:44;;;;;;;10.80;10.50;;;21.90;21.60;;;;;;5016924;28;20403;-78
2022/09/08 13:16:16;;;;;;;11.90;11.40;;;22.00;21.10;;;;;;5022014;22;20488;-50
2022/09/08 13:18:58;;;;;;;12.77;11.80;;;22.00;21.10;;;;;;5029587;28;20518;-48
2022/09/08 13:21:47;;;;;;;10.80;10.40;;;22.10;21.60;;;;;;5030359;28;20506;-49